Time;durP1;ratioP1;P1;durP2;ratioP2;P2;SDS_P1;SDS_P2;PMS_P1;PMS_P2;Temp;Humidity;BMP_temperature;BMP_pressure;BME280_temperature;BME280_humidity;BME280_pressure;Samples;Min_cycle;Max_cycle;Signal;HPM_P1;HPM_P2
2022/01/08 00:01:41;;;;;;;8.45;5.65;;;6.70;73.10;;;;;;5047414;28;20033;-74
2022/01/08 00:04:08;;;;;;;9.68;5.90;;;6.60;73.00;;;;;;5037958;28;20040;-74
2022/01/08 00:06:33;;;;;;;8.43;6.97;;;6.60;73.00;;;;;;5049636;28;20038;-74
2022/01/08 00:09:00;;;;;;;9.07;6.47;;;6.60;73.00;;;;;;5058286;28;20036;-74
2022/01/08 00:11:27;;;;;;;7.47;5.70;;;6.50;72.80;;;;;;5047095;28;20086;-74
2022/01/08 00:13:54;;;;;;;9.68;6.63;;;6.50;72.80;;;;;;5045702;28;20029;-74
2022/01/08 00:16:21;;;;;;;10.15;6.60;;;6.50;72.80;;;;;;5029128;28;20472;-74
2022/01/08 00:18:47;;;;;;;8.55;5.53;;;6.50;72.90;;;;;;5047221;28;20033;-73
2022/01/08 00:21:13;;;;;;;9.10;6.45;;;6.50;72.90;;;;;;5046835;28;20028;-74
2022/01/08 00:23:39;;;;;;;8.77;5.95;;;6.50;72.90;;;;;;5047062;28;20293;-73
2022/01/08 00:26:06;;;;;;;8.80;5.53;;;6.50;72.90;;;;;;5047513;28;20048;-73
2022/01/08 00:28:32;;;;;;;8.57;6.30;;;6.50;72.90;;;;;;5046757;28;20044;-73
2022/01/08 00:30:58;;;;;;;7.35;5.80;;;6.50;72.90;;;;;;5046507;28;20534;-74
2022/01/08 00:33:24;;;;;;;11.55;6.10;;;6.50;72.90;;;;;;5028916;28;20032;-73
2022/01/08 00:35:50;;;;;;;7.55;5.95;;;6.50;72.90;;;;;;5046969;28;20439;-74
2022/01/08 00:38:16;;;;;;;6.95;4.95;;;6.50;72.90;;;;;;5046557;28;20044;-72
2022/01/08 00:40:42;;;;;;;10.50;5.47;;;6.50;72.80;;;;;;5028735;28;20036;-73
2022/01/08 00:43:08;;;;;;;9.02;5.80;;;6.50;72.80;;;;;;5046505;28;20040;-74
2022/01/08 00:45:34;;;;;;;8.32;5.25;;;6.50;72.80;;;;;;5041987;28;20475;-73
2022/01/08 00:48:00;;;;;;;8.45;6.15;;;6.50;72.80;;;;;;5046197;28;20041;-74
2022/01/08 00:50:26;;;;;;;7.80;5.55;;;6.50;72.80;;;;;;5048686;28;20182;-73
2022/01/08 00:52:52;;;;;;;7.47;5.47;;;6.50;72.80;;;;;;5032255;28;20139;-74
2022/01/08 00:55:18;;;;;;;8.57;5.47;;;6.60;72.90;;;;;;5049030;28;20060;-74
2022/01/08 00:57:44;;;;;;;7.93;6.32;;;6.60;72.90;;;;;;5030922;28;20025;-73
2022/01/08 01:00:13;;;;;;;8.18;5.70;;;6.60;72.90;;;;;;5047428;28;20642;-73
2022/01/08 01:02:40;;;;;;;7.40;5.43;;;6.60;72.90;;;;;;5047821;28;20041;-73
2022/01/08 01:05:07;;;;;;;5.70;5.10;;;6.60;72.90;;;;;;5047400;28;20037;-73
2022/01/08 01:07:33;;;;;;;7.40;5.07;;;6.60;72.80;;;;;;5046886;28;20029;-74
2022/01/08 01:09:59;;;;;;;6.80;5.20;;;6.60;72.80;;;;;;5046627;28;20385;-74
2022/01/08 01:12:25;;;;;;;9.95;6.10;;;6.60;72.80;;;;;;5047408;28;20083;-73
2022/01/08 01:14:51;;;;;;;6.85;5.20;;;6.60;72.80;;;;;;5045344;28;20453;-73
2022/01/08 01:17:17;;;;;;;9.23;5.75;;;6.60;72.80;;;;;;5046445;28;20033;-73
2022/01/08 01:19:43;;;;;;;9.73;5.53;;;6.60;72.80;;;;;;5043320;28;20021;-75
2022/01/08 01:22:13;;;;;;;6.45;5.13;;;6.60;72.80;;;;;;5032516;28;20043;-75
2022/01/08 01:24:40;;;;;;;6.10;5.18;;;6.60;72.80;;;;;;5038938;28;20484;-75
2022/01/08 01:27:52;;;;;;;9.82;5.80;;;6.70;72.90;;;;;;5045963;28;20043;-75
2022/01/08 01:30:05;;;;;;;5.72;5.10;;;6.70;72.90;;;;;;5045782;28;20143;-73
2022/01/08 01:47:00;;;;;;;6.32;5.35;;;6.80;72.90;;;;;;5045858;28;20029;-75
2022/01/08 01:48:59;;;;;;;7.70;4.93;;;6.80;72.90;;;;;;5045887;28;20281;-74
2022/01/08 01:51:25;;;;;;;9.07;6.13;;;6.80;72.80;;;;;;5027724;28;20090;-74
2022/01/08 01:53:51;;;;;;;8.05;5.13;;;6.80;72.80;;;;;;5045569;28;20029;-75
2022/01/08 01:56:19;;;;;;;8.27;5.28;;;6.80;72.80;;;;;;5045285;28;20036;-74
2022/01/08 01:58:46;;;;;;;7.80;5.53;;;6.90;73.00;;;;;;5045944;28;20029;-75
2022/01/08 02:01:13;;;;;;;5.88;4.70;;;6.80;72.80;;;;;;5049519;28;20025;-74
2022/01/08 02:03:39;;;;;;;8.13;5.15;;;6.90;73.00;;;;;;5049867;28;20061;-75
2022/01/08 02:06:06;;;;;;;5.85;4.80;;;6.90;73.00;;;;;;5050359;28;20041;-74
2022/01/08 02:08:33;;;;;;;6.18;4.32;;;6.90;73.00;;;;;;5036662;28;20055;-75
2022/01/08 02:10:59;;;;;;;7.53;4.60;;;6.90;73.00;;;;;;5052090;28;20044;-75
2022/01/08 02:13:27;;;;;;;5.53;4.85;;;6.90;73.00;;;;;;5069523;28;20392;-74
2022/01/08 02:15:55;;;;;;;8.80;4.63;;;6.90;73.00;;;;;;5034437;28;20357;-75
2022/01/08 02:18:23;;;;;;;6.15;4.70;;;6.90;73.00;;;;;;5069445;28;20484;-74
2022/01/08 02:20:49;;;;;;;5.88;4.30;;;6.90;73.00;;;;;;5069073;28;20032;-73
2022/01/08 02:23:15;;;;;;;5.97;4.13;;;6.90;73.00;;;;;;5051670;28;20476;-75
2022/01/08 02:25:41;;;;;;;7.22;4.47;;;6.90;73.00;;;;;;5067671;28;20032;-75
2022/01/08 02:28:07;;;;;;;5.03;3.75;;;6.90;73.00;;;;;;5069218;28;20035;-74
2022/01/08 02:30:33;;;;;;;8.10;4.35;;;6.90;73.00;;;;;;5068391;28;20036;-75
2022/01/08 02:32:59;;;;;;;8.80;4.50;;;6.90;73.00;;;;;;5069584;28;20060;-75
2022/01/08 02:35:26;;;;;;;8.35;5.13;;;7.00;73.20;;;;;;5070484;28;20562;-74
2022/01/08 02:37:53;;;;;;;6.60;3.97;;;7.00;73.20;;;;;;5070434;28;20033;-75
2022/01/08 02:40:20;;;;;;;5.00;3.70;;;7.00;73.10;;;;;;5050416;28;20518;-74
2022/01/08 02:42:53;;;;;;;6.93;4.03;;;7.00;73.10;;;;;;5050957;28;20579;-75
2022/01/08 02:45:21;;;;;;;6.25;3.72;;;7.00;73.10;;;;;;5051602;28;20549;-74
2022/01/08 02:47:48;;;;;;;7.35;4.35;;;7.00;73.10;;;;;;5073519;28;20052;-75
2022/01/08 02:50:15;;;;;;;6.97;3.85;;;7.00;73.10;;;;;;5055730;28;20051;-75
2022/01/08 02:52:45;;;;;;;6.22;3.47;;;7.00;73.10;;;;;;5073722;28;20391;-74
2022/01/08 02:55:15;;;;;;;5.50;3.67;;;7.00;73.10;;;;;;5073687;28;20116;-75
2022/01/08 02:57:40;;;;;;;7.97;4.07;;;7.00;73.10;;;;;;5073783;28;20111;-75
2022/01/08 03:00:08;;;;;;;7.80;4.30;;;7.10;73.20;;;;;;5073419;28;20128;-75
2022/01/08 03:02:47;;;;;;;6.40;3.70;;;7.10;73.20;;;;;;5073932;28;20107;-75
2022/01/08 03:05:13;;;;;;;5.18;3.60;;;7.10;73.20;;;;;;5055429;28;20028;-74
2022/01/08 03:07:44;;;;;;;5.60;3.53;;;7.10;73.20;;;;;;5073506;28;20031;-74
2022/01/08 03:10:12;;;;;;;7.93;3.30;;;7.10;73.20;;;;;;5073085;28;20127;-74
2022/01/08 03:12:43;;;;;;;4.97;3.42;;;7.10;73.20;;;;;;5073652;28;20032;-74
2022/01/08 03:15:20;;;;;;;3.97;2.88;;;7.10;73.20;;;;;;5072922;28;20032;-75
2022/01/08 03:17:46;;;;;;;8.50;4.10;;;7.10;73.20;;;;;;5073401;28;20025;-75
2022/01/08 03:20:14;;;;;;;5.22;3.90;;;7.10;73.20;;;;;;5073009;28;20500;-74
2022/01/08 03:22:43;;;;;;;6.60;3.25;;;7.20;73.40;;;;;;5073153;28;20475;-75
2022/01/08 03:25:11;;;;;;;3.88;3.13;;;7.20;73.30;;;;;;5071958;28;20028;-74
2022/01/08 03:27:37;;;;;;;5.35;3.30;;;7.20;73.30;;;;;;5073040;28;20029;-75
2022/01/08 03:30:09;;;;;;;4.75;2.63;;;7.20;73.30;;;;;;5072652;28;20074;-75
2022/01/08 03:32:35;;;;;;;6.55;3.15;;;7.20;73.30;;;;;;5072725;28;20083;-75
2022/01/08 03:35:02;;;;;;;9.50;2.90;;;7.30;73.50;;;;;;5072835;28;20060;-74
2022/01/08 03:37:28;;;;;;;4.93;2.70;;;7.30;73.40;;;;;;5073061;28;20164;-74
2022/01/08 03:39:54;;;;;;;7.80;3.25;;;7.30;73.40;;;;;;5073068;28;20101;-74
2022/01/08 03:42:20;;;;;;;5.72;3.05;;;7.20;73.30;;;;;;5055451;28;20131;-75
2022/01/08 03:44:46;;;;;;;5.75;2.67;;;7.20;73.30;;;;;;5072459;28;20120;-73
2022/01/08 03:49:53;;;;;;;7.15;3.08;;;7.30;73.60;;;;;;5072693;28;20183;-75
2022/01/08 03:52:20;;;;;;;7.38;3.20;;;7.20;73.40;;;;;;5072651;28;20029;-75
2022/01/08 03:54:46;;;;;;;11.65;3.55;;;7.30;73.60;;;;;;5072866;28;20438;-75
2022/01/08 03:57:12;;;;;;;6.25;3.08;;;7.30;73.60;;;;;;5072401;28;20052;-74
2022/01/08 03:59:38;;;;;;;5.68;3.10;;;7.30;73.60;;;;;;5072298;28;20074;-74
2022/01/08 04:02:05;;;;;;;9.15;3.03;;;7.30;73.60;;;;;;5072216;28;20033;-74
2022/01/08 04:04:31;;;;;;;6.10;2.67;;;7.30;73.60;;;;;;5072642;28;20063;-75
2022/01/08 04:06:57;;;;;;;6.75;2.80;;;7.40;73.80;;;;;;5072624;28;20032;-75
2022/01/08 04:09:23;;;;;;;8.50;3.03;;;7.40;73.70;;;;;;5072734;28;20045;-75
2022/01/08 04:11:50;;;;;;;5.93;2.55;;;7.40;73.70;;;;;;5071927;28;20059;-74
2022/01/08 04:14:17;;;;;;;6.22;2.50;;;7.40;73.70;;;;;;5072494;28;20021;-74
2022/01/08 04:16:47;;;;;;;9.25;2.83;;;7.50;73.90;;;;;;5072017;28;20024;-74
2022/01/08 04:19:13;;;;;;;6.72;2.70;;;7.50;73.80;;;;;;5074488;28;20031;-74
2022/01/08 04:24:11;;;;;;;8.37;2.90;;;7.50;73.80;;;;;;5057008;28;20025;-75
2022/01/08 04:26:37;;;;;;;7.00;2.55;;;7.60;73.90;;;;;;5074055;28;20044;-75
2022/01/08 04:29:05;;;;;;;6.68;2.30;;;7.60;73.90;;;;;;5073931;28;20029;-75
2022/01/08 04:31:30;;;;;;;9.88;3.38;;;7.60;73.90;;;;;;5071684;28;20033;-74
2022/01/08 04:33:56;;;;;;;6.60;3.00;;;7.70;74.00;;;;;;5055063;28;20039;-74
2022/01/08 04:36:23;;;;;;;6.30;2.75;;;7.70;74.00;;;;;;5054151;28;20117;-74
2022/01/08 04:38:49;;;;;;;10.07;2.92;;;7.70;74.00;;;;;;5071995;28;20039;-75
2022/01/08 04:41:15;;;;;;;5.00;2.42;;;7.80;74.10;;;;;;5071578;28;20028;-74
2022/01/08 04:43:43;;;;;;;9.57;3.22;;;7.80;74.10;;;;;;5071664;28;20298;-74
2022/01/08 04:46:10;;;;;;;7.60;2.65;;;7.80;74.10;;;;;;5054137;28;20116;-74
2022/01/08 04:48:36;;;;;;;5.85;2.33;;;7.80;74.10;;;;;;5071633;28;20237;-73
2022/01/08 04:51:02;;;;;;;8.77;2.28;;;7.90;74.20;;;;;;5053387;28;20071;-74
2022/01/08 04:53:28;;;;;;;6.57;2.60;;;7.90;74.20;;;;;;5071415;28;20494;-74
2022/01/08 04:55:54;;;;;;;6.75;2.58;;;8.00;74.40;;;;;;5071614;28;20033;-75
2022/01/08 04:58:20;;;;;;;8.18;2.70;;;8.00;74.40;;;;;;5071650;28;20024;-74
2022/01/08 05:00:46;;;;;;;9.48;2.45;;;8.00;74.40;;;;;;5071076;28;20697;-74
2022/01/08 05:03:12;;;;;;;14.77;3.28;;;8.00;74.30;;;;;;5071592;28;20024;-75
2022/01/08 05:05:38;;;;;;;7.18;2.30;;;8.00;74.40;;;;;;5070824;28;20495;-74
2022/01/08 05:08:04;;;;;;;8.63;3.65;;;8.00;74.40;;;;;;5070858;28;20036;-74
2022/01/08 05:10:33;;;;;;;5.43;2.15;;;8.00;74.40;;;;;;5071517;28;20045;-74
2022/01/08 05:13:05;;;;;;;8.05;2.47;;;8.00;74.40;;;;;;5070303;28;20031;-75
2022/01/08 05:15:32;;;;;;;10.32;3.30;;;8.00;74.40;;;;;;5071357;28;20028;-74
2022/01/08 05:17:58;;;;;;;7.43;2.83;;;8.10;74.60;;;;;;5070864;28;20031;-75
2022/01/08 05:20:27;;;;;;;9.93;2.47;;;8.10;74.60;;;;;;5070850;28;20105;-74
2022/01/08 05:22:59;;;;;;;14.13;2.70;;;8.10;74.60;;;;;;5069954;28;20143;-74
2022/01/08 05:25:27;;;;;;;11.40;3.30;;;8.10;74.70;;;;;;5071050;28;20078;-74
2022/01/08 05:27:53;;;;;;;8.65;2.80;;;8.10;74.70;;;;;;5070915;28;20024;-74
2022/01/08 05:30:22;;;;;;;7.40;2.30;;;8.10;74.70;;;;;;5071048;28;20051;-74
2022/01/08 05:32:48;;;;;;;11.52;3.15;;;8.10;74.70;;;;;;5052693;28;20032;-74
2022/01/08 05:35:14;;;;;;;8.95;2.95;;;8.20;74.80;;;;;;5070775;28;20036;-73
2022/01/08 05:37:41;;;;;;;9.73;3.25;;;8.20;74.80;;;;;;5070990;28;20031;-74
2022/01/08 05:40:08;;;;;;;7.53;2.40;;;8.20;74.80;;;;;;5065364;28;20260;-74
2022/01/08 05:42:34;;;;;;;6.07;2.40;;;8.20;74.80;;;;;;5047416;28;20120;-73
2022/01/08 05:45:00;;;;;;;10.60;3.60;;;8.30;75.00;;;;;;5051023;28;20039;-74
2022/01/08 05:47:31;;;;;;;11.15;2.80;;;8.30;74.90;;;;;;5051590;28;20052;-74
2022/01/08 05:49:57;;;;;;;12.73;2.90;;;8.30;74.90;;;;;;5066909;28;20442;-74
2022/01/08 05:52:23;;;;;;;6.95;2.05;;;8.30;74.90;;;;;;5049211;28;20158;-75
2022/01/08 05:54:49;;;;;;;8.30;2.40;;;8.30;74.90;;;;;;5067568;28;20049;-74
2022/01/08 05:57:15;;;;;;;9.55;2.60;;;8.30;75.00;;;;;;5067513;28;20047;-74
2022/01/08 05:59:41;;;;;;;8.70;3.05;;;8.30;75.00;;;;;;5047329;28;20447;-73
2022/01/08 06:02:09;;;;;;;8.65;2.22;;;8.40;75.10;;;;;;5046856;28;20029;-73
2022/01/08 06:04:36;;;;;;;11.13;2.85;;;8.40;75.20;;;;;;5064473;28;20032;-74
2022/01/08 06:07:02;;;;;;;13.63;3.35;;;8.40;75.20;;;;;;5065349;28;20071;-74
2022/01/08 06:09:28;;;;;;;9.85;2.50;;;8.40;75.20;;;;;;5064981;28;20492;-74
2022/01/08 06:11:55;;;;;;;10.75;2.45;;;8.40;75.20;;;;;;5066087;28;20032;-74
2022/01/08 06:14:21;;;;;;;7.88;1.98;;;8.40;75.20;;;;;;5065458;28;20379;-74
2022/01/08 06:16:48;;;;;;;11.20;2.45;;;8.40;75.20;;;;;;5048042;28;20033;-75
2022/01/08 06:19:15;;;;;;;8.43;2.20;;;8.40;75.30;;;;;;5065318;28;20029;-74
2022/01/08 06:21:41;;;;;;;7.85;2.45;;;8.50;75.40;;;;;;5063588;28;20086;-74
2022/01/08 06:24:08;;;;;;;3.83;1.50;;;8.50;75.40;;;;;;5064025;28;20391;-74
2022/01/08 06:26:34;;;;;;;3.50;1.52;;;8.50;75.40;;;;;;5065690;28;20029;-74
2022/01/08 06:29:01;;;;;;;7.85;1.85;;;8.50;75.40;;;;;;5047803;28;20043;-74
2022/01/08 06:31:27;;;;;;;9.02;2.47;;;8.60;75.50;;;;;;5065486;28;20079;-74
2022/01/08 06:33:54;;;;;;;8.77;2.20;;;8.60;75.50;;;;;;5055448;28;20613;-75
2022/01/08 06:36:23;;;;;;;7.75;2.00;;;8.60;75.50;;;;;;5065785;28;20082;-74
2022/01/08 06:38:53;;;;;;;5.82;1.88;;;8.60;75.40;;;;;;5065679;28;20375;-76
2022/01/08 06:41:19;;;;;;;9.57;2.38;;;8.70;75.60;;;;;;5047419;28;20272;-75
2022/01/08 06:43:46;;;;;;;9.27;1.60;;;8.70;75.60;;;;;;5055266;28;20114;-74
2022/01/08 06:46:12;;;;;;;5.97;2.15;;;8.70;75.60;;;;;;5030709;28;20031;-74
2022/01/08 06:48:38;;;;;;;10.20;2.47;;;8.70;75.60;;;;;;5048203;28;20625;-73
2022/01/08 06:51:04;;;;;;;7.57;1.90;;;8.70;75.60;;;;;;5048533;28;20090;-74
2022/01/08 06:53:30;;;;;;;6.38;2.17;;;8.70;75.70;;;;;;5048327;28;20037;-74
2022/01/08 06:55:56;;;;;;;6.35;1.80;;;8.80;75.80;;;;;;5049075;28;20495;-74
2022/01/08 06:58:25;;;;;;;7.70;1.85;;;8.70;75.70;;;;;;5048790;28;20518;-75
2022/01/08 07:00:51;;;;;;;7.95;2.00;;;8.70;75.70;;;;;;5048454;28;20404;-75
2022/01/08 07:03:17;;;;;;;7.95;2.58;;;8.80;75.90;;;;;;5032586;28;20025;-74
2022/01/08 07:05:43;;;;;;;7.32;1.80;;;8.80;75.90;;;;;;5047848;28;20035;-75
2022/01/08 07:08:10;;;;;;;5.25;1.65;;;8.80;75.90;;;;;;5047397;28;20029;-74
2022/01/08 07:10:36;;;;;;;8.10;2.00;;;8.80;75.90;;;;;;5051916;28;20487;-75
2022/01/08 07:13:03;;;;;;;8.70;2.00;;;8.80;75.90;;;;;;5064783;28;20025;-76
2022/01/08 07:15:29;;;;;;;4.15;1.50;;;8.80;75.90;;;;;;5047029;28;20037;-77
2022/01/08 07:17:55;;;;;;;7.47;1.60;;;8.90;76.10;;;;;;5048478;28;20033;-76
2022/01/08 07:20:21;;;;;;;8.60;2.35;;;8.90;76.10;;;;;;5055913;28;20090;-77
2022/01/08 07:22:48;;;;;;;6.63;1.90;;;8.90;76.10;;;;;;5068235;28;20462;-76
2022/01/08 07:25:15;;;;;;;6.75;1.67;;;8.90;76.10;;;;;;5066981;28;20035;-77
2022/01/08 07:27:41;;;;;;;4.80;1.73;;;8.90;76.00;;;;;;5065438;28;20127;-76
2022/01/08 07:30:08;;;;;;;8.32;1.60;;;9.00;76.20;;;;;;5047063;28;20041;-75
2022/01/08 07:32:42;;;;;;;9.18;2.10;;;9.00;76.20;;;;;;5058743;28;20028;-76
2022/01/08 07:35:10;;;;;;;9.15;2.35;;;9.00;76.10;;;;;;5054616;28;20028;-75
2022/01/08 07:37:35;;;;;;;6.20;2.60;;;9.00;76.10;;;;;;5068054;28;20034;-74
2022/01/08 07:40:02;;;;;;;6.28;1.80;;;9.00;76.10;;;;;;5068143;28;20032;-75
2022/01/08 07:42:28;;;;;;;10.20;3.17;;;9.10;76.30;;;;;;5069784;28;20031;-75
2022/01/08 07:44:54;;;;;;;8.65;1.80;;;9.10;76.30;;;;;;5069803;28;20037;-75
2022/01/08 07:47:20;;;;;;;6.05;1.90;;;9.10;76.30;;;;;;5069953;28;20580;-75
2022/01/08 07:49:46;;;;;;;8.93;2.55;;;9.10;76.30;;;;;;5069817;28;20407;-75
2022/01/08 07:52:13;;;;;;;9.02;1.80;;;9.10;76.30;;;;;;5069554;28;20036;-74
2022/01/08 07:54:39;;;;;;;7.63;1.92;;;9.10;76.30;;;;;;5067156;28;20032;-75
2022/01/08 07:57:05;;;;;;;5.55;1.60;;;9.10;76.30;;;;;;5067874;28;20051;-75
2022/01/08 07:59:31;;;;;;;6.95;1.63;;;9.10;76.40;;;;;;5068621;28;20047;-74
2022/01/08 08:01:56;;;;;;;8.48;2.08;;;9.10;76.40;;;;;;5068586;28;20024;-75
2022/01/08 08:04:22;;;;;;;6.57;1.70;;;9.20;76.60;;;;;;5050185;28;20403;-74
2022/01/08 08:06:49;;;;;;;6.13;1.77;;;9.10;76.40;;;;;;5067931;28;20426;-74
2022/01/08 08:09:15;;;;;;;7.88;3.35;;;9.20;76.60;;;;;;5049107;28;20090;-75
2022/01/08 08:11:42;;;;;;;8.35;2.30;;;9.20;76.60;;;;;;5066955;28;20278;-75
2022/01/08 08:14:08;;;;;;;8.40;1.50;;;9.20;76.60;;;;;;5049481;28;20094;-75
2022/01/08 08:16:34;;;;;;;4.63;1.77;;;9.20;76.60;;;;;;5066978;28;20059;-74
2022/01/08 08:19:01;;;;;;;5.70;2.03;;;9.20;76.60;;;;;;5067123;28;20495;-74
2022/01/08 08:21:27;;;;;;;5.25;1.42;;;9.30;76.90;;;;;;5066693;28;20047;-74
2022/01/08 08:23:53;;;;;;;10.07;2.33;;;9.30;76.90;;;;;;5066372;28;20036;-75
2022/01/08 08:26:19;;;;;;;3.50;1.58;;;9.30;76.80;;;;;;5049239;28;20373;-74
2022/01/08 08:28:45;;;;;;;5.70;1.60;;;9.30;76.80;;;;;;5067133;28;20028;-74
2022/01/08 08:31:11;;;;;;;6.28;1.60;;;9.40;77.00;;;;;;5065954;28;20571;-74
2022/01/08 08:33:38;;;;;;;6.97;1.73;;;9.40;77.00;;;;;;5053210;28;20021;-77
2022/01/08 08:36:05;;;;;;;8.45;1.60;;;9.40;76.90;;;;;;5067140;28;20044;-74
2022/01/08 08:38:31;;;;;;;7.57;1.40;;;9.40;77.10;;;;;;5057521;28;20037;-75
2022/01/08 08:40:58;;;;;;;13.40;2.15;;;9.60;78.30;;;;;;5046772;28;20106;-75
2022/01/08 08:43:24;;;;;;;8.93;2.85;;;9.90;79.10;;;;;;5031413;28;20037;-74
2022/01/08 08:45:50;;;;;;;6.78;1.60;;;10.20;79.20;;;;;;5046241;28;20033;-75
2022/01/08 08:48:17;;;;;;;3.50;1.20;;;10.40;79.50;;;;;;5045405;28;20111;-75
2022/01/08 08:50:44;;;;;;;4.90;1.83;;;10.60;79.10;;;;;;5044189;28;20444;-75
2022/01/08 08:53:10;;;;;;;8.75;1.83;;;10.60;79.00;;;;;;5044648;28;20032;-76
2022/01/08 08:55:36;;;;;;;7.97;2.38;;;10.70;79.10;;;;;;5046143;28;20427;-74
2022/01/08 08:58:02;;;;;;;10.40;1.73;;;10.60;79.00;;;;;;5045056;28;20025;-74
2022/01/08 09:00:28;;;;;;;6.45;1.60;;;10.60;79.10;;;;;;5046705;28;20039;-75
2022/01/08 09:02:54;;;;;;;5.50;1.17;;;10.60;79.20;;;;;;5046224;28;20143;-75
2022/01/08 09:05:20;;;;;;;5.25;1.30;;;10.60;79.20;;;;;;5046323;28;20676;-75
2022/01/08 09:07:46;;;;;;;7.15;1.33;;;10.60;79.40;;;;;;5046088;28;20365;-75
2022/01/08 09:10:13;;;;;;;8.63;1.80;;;10.60;79.40;;;;;;5044623;28;20075;-76
2022/01/08 09:12:40;;;;;;;6.78;2.08;;;10.60;79.50;;;;;;5045786;28;20025;-75
2022/01/08 09:15:08;;;;;;;5.68;1.20;;;10.50;79.40;;;;;;5045654;28;20128;-74
2022/01/08 09:17:35;;;;;;;5.15;1.88;;;10.60;79.60;;;;;;5052253;28;20399;-76
2022/01/08 09:20:03;;;;;;;8.48;1.55;;;10.50;79.50;;;;;;5071141;28;20097;-76
2022/01/08 09:22:30;;;;;;;6.15;1.35;;;10.50;79.60;;;;;;5064982;28;20024;-77
2022/01/08 09:24:56;;;;;;;5.07;1.10;;;10.50;79.70;;;;;;5047937;28;20634;-76
2022/01/08 09:27:23;;;;;;;3.80;0.98;;;10.50;79.70;;;;;;5031404;28;20031;-75
2022/01/08 09:29:50;;;;;;;3.00;1.23;;;10.60;79.90;;;;;;5065911;28;20036;-76
2022/01/08 09:32:17;;;;;;;3.15;0.77;;;10.60;79.80;;;;;;5064707;28;20028;-76
2022/01/08 09:34:46;;;;;;;4.38;0.93;;;10.60;79.80;;;;;;5048297;28;20025;-75
2022/01/08 09:37:12;;;;;;;4.03;0.90;;;10.50;79.70;;;;;;5035110;28;20058;-76
2022/01/08 09:39:39;;;;;;;3.38;0.85;;;10.60;79.90;;;;;;5061906;28;20040;-76
2022/01/08 09:42:08;;;;;;;5.47;1.25;;;10.60;79.90;;;;;;5062860;28;20035;-75
2022/01/08 09:44:37;;;;;;;6.38;1.85;;;10.50;79.70;;;;;;5063207;28;20119;-75
2022/01/08 09:47:06;;;;;;;3.17;0.73;;;10.50;79.70;;;;;;5064536;28;20452;-75
2022/01/08 09:49:32;;;;;;;5.90;1.33;;;10.50;79.70;;;;;;5045589;28;20202;-75
2022/01/08 09:52:00;;;;;;;3.60;0.80;;;10.50;79.70;;;;;;5064184;28;20483;-75
2022/01/08 09:54:27;;;;;;;5.18;0.95;;;10.50;79.70;;;;;;5063769;28;20479;-75
2022/01/08 09:56:54;;;;;;;2.15;0.90;;;10.50;79.80;;;;;;5065386;28;20047;-76
2022/01/08 09:59:21;;;;;;;2.67;1.42;;;10.50;79.80;;;;;;5047031;28;20025;-76
2022/01/08 10:01:58;;;;;;;2.53;0.93;;;10.50;79.80;;;;;;5065820;28;20572;-76
2022/01/08 10:04:26;;;;;;;4.22;1.00;;;10.50;79.80;;;;;;5057989;28;20028;-75
2022/01/08 10:07:23;;;;;;;2.88;1.00;;;10.50;79.80;;;;;;5048163;28;20029;-75
2022/01/08 10:10:12;;;;;;;3.30;1.42;;;10.50;79.70;;;;;;5046082;28;20454;-75
2022/01/08 10:12:45;;;;;;;2.22;1.00;;;10.50;79.60;;;;;;5027545;28;20036;-75
2022/01/08 10:17:59;;;;;;;3.20;0.70;;;10.60;79.70;;;;;;5060767;28;20116;-76
2022/01/08 10:20:36;;;;;;;3.97;1.38;;;10.50;79.50;;;;;;5047337;28;20039;-75
2022/01/08 10:23:21;;;;;;;3.83;0.85;;;10.50;79.50;;;;;;5031521;28;20196;-76
2022/01/08 10:26:05;;;;;;;2.60;0.73;;;10.50;79.50;;;;;;5031909;28;20033;-76
2022/01/08 10:28:53;;;;;;;2.85;1.10;;;10.50;79.40;;;;;;5050068;28;20516;-76
2022/01/08 10:31:26;;;;;;;2.95;0.90;;;10.50;79.40;;;;;;5049254;28;20102;-75
2022/01/08 10:34:01;;;;;;;4.32;1.23;;;10.50;79.40;;;;;;5049297;28;20025;-76
2022/01/08 10:36:33;;;;;;;2.17;0.82;;;10.60;79.60;;;;;;5049015;28;20041;-77
2022/01/08 10:39:08;;;;;;;1.77;0.60;;;10.60;79.50;;;;;;5040852;28;20029;-75
2022/01/08 10:41:42;;;;;;;3.38;0.52;;;10.60;79.50;;;;;;5049172;28;20320;-75
2022/01/08 10:44:17;;;;;;;4.38;0.80;;;10.50;79.40;;;;;;5048984;28;20043;-76
2022/01/08 10:46:54;;;;;;;3.63;0.70;;;10.60;79.50;;;;;;5049859;28;20068;-76
2022/01/08 10:49:36;;;;;;;2.83;0.82;;;10.50;79.40;;;;;;5049161;28;20480;-75
2022/01/08 10:52:07;;;;;;;0.90;0.43;;;10.60;79.50;;;;;;5049338;28;20029;-75
2022/01/08 10:54:39;;;;;;;2.17;0.63;;;10.60;79.50;;;;;;5048519;28;20500;-76
2022/01/08 10:57:08;;;;;;;2.55;0.73;;;10.60;79.50;;;;;;5031568;28;20108;-75
2022/01/08 10:59:36;;;;;;;3.72;0.68;;;10.60;79.50;;;;;;5065435;28;20032;-75
2022/01/08 11:02:13;;;;;;;3.15;0.70;;;10.60;79.50;;;;;;5069578;28;20056;-75
2022/01/08 11:04:52;;;;;;;3.58;0.80;;;10.60;79.50;;;;;;5068796;28;20082;-76
2022/01/08 11:07:31;;;;;;;1.98;1.33;;;10.70;79.50;;;;;;5050836;28;20036;-76
2022/01/08 11:10:01;;;;;;;1.85;0.85;;;10.70;79.50;;;;;;5050191;28;20440;-75
2022/01/08 11:12:34;;;;;;;1.30;0.60;;;10.70;79.40;;;;;;5068671;28;20329;-75
2022/01/08 11:17:46;;;;;;;1.27;0.50;;;10.80;79.50;;;;;;5040048;28;20029;-76
2022/01/08 11:20:19;;;;;;;3.33;0.77;;;10.80;79.40;;;;;;5051431;28;20394;-75
2022/01/08 11:22:49;;;;;;;0.82;0.47;;;10.90;79.50;;;;;;5062106;28;20674;-75
2022/01/08 11:25:16;;;;;;;1.50;0.70;;;10.90;79.40;;;;;;5059472;28;20021;-75
2022/01/08 11:28:10;;;;;;;1.45;0.47;;;10.90;79.40;;;;;;5063594;28;20036;-75
2022/01/08 11:30:58;;;;;;;3.70;0.98;;;11.00;79.50;;;;;;5070144;28;20044;-75
2022/01/08 11:33:30;;;;;;;2.30;0.50;;;11.00;79.40;;;;;;5063704;28;20033;-75
2022/01/08 11:35:57;;;;;;;1.17;0.38;;;11.00;79.40;;;;;;5055410;28;20029;-74
2022/01/08 11:38:26;;;;;;;1.00;0.52;;;11.10;79.60;;;;;;5031423;28;20158;-75
2022/01/08 11:40:53;;;;;;;0.85;0.43;;;11.10;79.50;;;;;;5048572;28;20127;-74
2022/01/08 11:43:23;;;;;;;0.82;0.73;;;11.20;79.60;;;;;;5048505;28;20304;-74
2022/01/08 11:45:55;;;;;;;1.42;0.73;;;11.30;79.60;;;;;;5048050;28;20349;-74
2022/01/08 11:48:47;;;;;;;1.02;0.40;;;11.30;79.50;;;;;;5042699;28;20064;-75
2022/01/08 11:51:16;;;;;;;0.77;0.50;;;11.30;79.40;;;;;;5026087;28;20083;-74
2022/01/08 11:53:51;;;;;;;1.00;0.30;;;11.40;79.50;;;;;;5043271;28;20025;-74
2022/01/08 11:56:25;;;;;;;0.38;0.30;;;11.40;79.50;;;;;;5042815;28;20408;-74
2022/01/08 11:59:06;;;;;;;3.30;0.50;;;11.40;79.50;;;;;;5056001;28;20060;-74
2022/01/08 12:01:33;;;;;;;1.67;0.55;;;11.40;79.50;;;;;;5038376;28;20397;-75
2022/01/08 12:03:59;;;;;;;0.40;0.40;;;11.40;79.50;;;;;;5046499;28;20515;-74
2022/01/08 12:06:26;;;;;;;0.70;0.63;;;11.40;79.40;;;;;;5046955;28;20037;-75
2022/01/08 12:09:07;;;;;;;0.63;0.30;;;11.50;79.60;;;;;;5048039;28;20112;-76
2022/01/08 12:12:04;;;;;;;1.58;1.48;;;11.50;79.60;;;;;;5047520;28;20518;-74
2022/01/08 12:14:36;;;;;;;1.00;0.50;;;11.60;79.60;;;;;;5047342;28;20025;-74
2022/01/08 12:17:15;;;;;;;1.20;0.50;;;11.80;80.00;;;;;;5047337;28;20036;-74
2022/01/08 12:19:54;;;;;;;1.42;0.63;;;11.90;79.80;;;;;;5029557;28;20087;-75
2022/01/08 12:22:20;;;;;;;2.10;0.60;;;12.00;79.70;;;;;;5046959;28;20025;-74
2022/01/08 12:24:55;;;;;;;6.80;1.60;;;12.20;79.90;;;;;;5044435;28;20033;-74
2022/01/08 12:27:46;;;;;;;3.65;1.20;;;12.30;79.90;;;;;;5045169;28;20029;-76
2022/01/08 12:30:15;;;;;;;6.57;1.48;;;12.60;80.30;;;;;;5027172;28;20072;-75
2022/01/08 12:32:46;;;;;;;9.57;2.03;;;12.70;80.00;;;;;;5027114;28;20080;-74
2022/01/08 12:37:52;;;;;;;11.60;2.67;;;12.90;79.90;;;;;;5045534;28;20025;-76
2022/01/08 12:40:42;;;;;;;13.70;2.20;;;13.00;79.90;;;;;;5046699;28;20504;-76
2022/01/08 12:43:23;;;;;;;13.00;3.88;;;12.90;79.70;;;;;;5046157;28;20427;-76
2022/01/08 12:45:50;;;;;;;16.40;3.40;;;13.00;79.90;;;;;;5045518;28;20873;-76
2022/01/08 12:48:18;;;;;;;14.50;3.30;;;13.00;79.80;;;;;;5045123;28;20310;-76
2022/01/08 12:50:43;;;;;;;19.00;3.65;;;13.00;79.90;;;;;;5046969;28;20091;-76
2022/01/08 12:53:09;;;;;;;15.10;3.67;;;13.00;79.90;;;;;;5046750;28;20029;-76
2022/01/08 12:55:43;;;;;;;17.00;4.40;;;12.90;79.70;;;;;;5046500;28;20087;-76
2022/01/08 12:58:23;;;;;;;20.98;5.65;;;12.90;79.80;;;;;;5041329;28;20040;-76
2022/01/08 13:01:01;;;;;;;21.15;3.80;;;12.90;79.80;;;;;;5027165;28;20413;-76
2022/01/08 13:03:32;;;;;;;12.68;3.42;;;12.90;79.80;;;;;;5030243;28;20116;-75
2022/01/08 13:06:04;;;;;;;20.88;5.05;;;12.90;79.80;;;;;;5046721;28;20033;-76
2022/01/08 13:08:34;;;;;;;19.08;4.22;;;12.90;79.80;;;;;;5046566;28;20024;-75
2022/01/08 13:11:02;;;;;;;20.30;5.53;;;12.90;79.70;;;;;;5046855;28;20060;-75
2022/01/08 13:13:45;;;;;;;19.17;4.90;;;12.90;79.60;;;;;;5044833;28;20040;-76
2022/01/08 13:16:25;;;;;;;25.73;5.05;;;12.90;79.50;;;;;;5046191;28;20538;-75
2022/01/08 13:18:54;;;;;;;19.20;5.40;;;12.80;79.40;;;;;;5062042;28;20033;-75
2022/01/08 13:21:22;;;;;;;26.00;6.32;;;12.80;79.40;;;;;;5046636;28;20381;-76
2022/01/08 13:23:51;;;;;;;20.02;5.25;;;12.70;79.20;;;;;;5039491;28;20068;-76
2022/01/08 13:26:28;;;;;;;23.83;4.85;;;12.70;79.30;;;;;;5025893;28;20405;-75
2022/01/08 13:28:54;;;;;;;20.65;5.03;;;12.60;79.10;;;;;;5026790;28;20067;-75